Time;durP1;ratioP1;P1;durP2;ratioP2;P2;SDS_P1;SDS_P2;PMS_P1;PMS_P2;Temp;Humidity;BMP_temperature;BMP_pressure;BME280_temperature;BME280_humidity;BME280_pressure;Samples;Min_cycle;Max_cycle;Signal;HPM_P1;HPM_P2
2022/05/30 00:02:21;0.00;0.00;0.62;0.00;0.00;0.62;2.27;1.23;;;27.60;26.50;;;;;;2263657;61;20365;-62
2022/05/30 00:05:06;0.00;0.00;0.62;0.00;0.00;0.62;1.97;1.30;;;27.70;26.50;;;;;;2785937;45;20377;-62
2022/05/30 00:07:52;0.00;0.00;0.62;0.00;0.00;0.62;2.03;1.50;;;27.70;26.50;;;;;;2261753;61;20672;-61
2022/05/30 00:10:37;0.00;0.00;0.62;0.00;0.00;0.62;2.10;1.40;;;27.70;26.50;;;;;;2263672;61;20746;-60
2022/05/30 00:13:22;0.00;0.00;0.62;0.00;0.00;0.62;1.50;1.00;;;27.70;26.50;;;;;;2262922;61;20392;-57
2022/05/30 00:16:09;0.00;0.00;0.62;0.00;0.00;0.62;2.20;1.67;;;27.60;26.50;;;;;;2263892;61;20364;-59
2022/05/30 00:18:54;0.00;0.00;0.62;0.00;0.00;0.62;2.07;1.50;;;27.70;26.50;;;;;;2262950;61;20424;-58
2022/05/30 00:21:39;0.00;0.00;0.62;0.00;0.00;0.62;4.13;2.10;;;27.70;26.50;;;;;;2265742;61;20463;-59
2022/05/30 00:24:25;0.00;0.00;0.62;0.00;0.00;0.62;1.90;1.27;;;27.70;26.50;;;;;;2268533;61;20360;-63
2022/05/30 00:27:09;0.00;0.00;0.62;0.00;0.00;0.62;1.80;1.20;;;27.70;26.50;;;;;;2267703;61;20391;-54
2022/05/30 00:29:56;0.00;0.00;0.62;0.00;0.00;0.62;2.13;1.40;;;27.70;26.50;;;;;;2267336;61;20379;-59
2022/05/30 00:32:42;0.00;0.00;0.62;0.00;0.00;0.62;1.57;1.00;;;27.70;26.50;;;;;;2264417;61;20419;-60
2022/05/30 00:35:27;0.00;0.00;0.62;0.00;0.00;0.62;2.57;1.20;;;27.70;26.50;;;;;;2267317;61;20415;-58
2022/05/30 00:38:11;0.00;0.00;0.62;0.00;0.00;0.62;1.90;1.30;;;27.70;26.50;;;;;;2268340;61;20422;-58
2022/05/30 00:40:57;0.00;0.00;0.62;0.00;0.00;0.62;2.00;1.03;;;27.70;26.50;;;;;;2267319;61;20371;-58
2022/05/30 00:43:46;0.00;0.00;0.62;0.00;0.00;0.62;2.57;1.10;;;27.70;26.50;;;;;;2268201;61;20363;-57
2022/05/30 00:46:31;0.00;0.00;0.62;0.00;0.00;0.62;1.90;1.30;;;27.60;26.40;;;;;;2264316;61;20376;-58
2022/05/30 00:49:16;0.00;0.00;0.62;0.00;0.00;0.62;1.70;1.00;;;27.60;26.50;;;;;;2267680;61;20360;-60
2022/05/30 00:52:05;0.00;0.00;0.62;0.00;0.00;0.62;1.70;1.00;;;27.60;26.50;;;;;;2267442;61;20368;-57
2022/05/30 00:54:52;0.00;0.00;0.62;0.00;0.00;0.62;1.50;0.93;;;27.60;26.50;;;;;;2264204;61;20431;-60
2022/05/30 00:57:41;0.00;0.00;0.62;0.00;0.00;0.62;1.67;1.10;;;27.60;26.50;;;;;;2264272;61;20472;-58
2022/05/30 01:00:27;0.00;0.00;0.62;0.00;0.00;0.62;1.77;1.10;;;27.60;26.50;;;;;;2267538;61;20392;-56
2022/05/30 01:06:32;0.00;0.00;0.62;0.00;0.00;0.62;1.50;1.00;;;27.60;26.50;;;;;;2264089;61;20395;-60
2022/05/30 01:09:21;0.00;0.00;0.62;0.00;0.00;0.62;2.23;1.20;;;27.60;26.50;;;;;;2264186;61;20645;-58
2022/05/30 01:12:10;0.00;0.00;0.62;0.00;0.00;0.62;1.67;1.10;;;27.60;26.50;;;;;;2264438;61;20453;-62
2022/05/30 01:14:56;0.00;0.00;0.62;0.00;0.00;0.62;1.87;1.00;;;27.60;26.50;;;;;;2265003;61;20418;-59
2022/05/30 01:17:50;0.00;0.00;0.62;0.00;0.00;0.62;2.10;1.33;;;27.60;26.50;;;;;;2264792;61;20392;-59
2022/05/30 01:20:47;0.00;0.00;0.62;0.00;0.00;0.62;1.60;1.20;;;27.60;26.50;;;;;;2267466;61;20371;-59
2022/05/30 01:23:48;0.00;0.00;0.62;0.00;0.00;0.62;2.30;1.20;;;27.60;26.50;;;;;;2267779;61;20368;-59
2022/05/30 01:27:12;0.00;0.00;0.62;0.00;0.00;0.62;2.30;1.10;;;27.60;26.60;;;;;;2267711;61;20785;-58
2022/05/30 01:30:06;0.00;0.00;0.62;0.00;0.00;0.62;1.30;0.90;;;27.60;26.60;;;;;;2263391;61;20382;-62
2022/05/30 01:32:58;0.00;0.00;0.62;0.00;0.00;0.62;1.83;1.20;;;27.60;26.60;;;;;;2265275;61;20371;-60
2022/05/30 01:35:43;0.00;0.00;0.62;0.00;0.00;0.62;2.00;1.10;;;27.60;26.60;;;;;;2265070;61;20396;-63
2022/05/30 01:38:32;0.00;0.00;0.62;0.00;0.00;0.62;1.80;1.10;;;27.60;26.50;;;;;;2265707;61;20438;-61
2022/05/30 01:41:18;0.00;0.00;0.62;0.00;0.00;0.62;2.10;1.20;;;27.50;26.40;;;;;;2261943;61;20380;-62
2022/05/30 01:44:03;0.00;0.00;0.62;0.00;0.00;0.62;2.57;1.17;;;27.60;26.50;;;;;;2268585;61;20371;-62
2022/05/30 01:46:49;0.00;0.00;0.62;0.00;0.00;0.62;2.00;1.10;;;27.50;26.30;;;;;;2265825;61;20415;-62
2022/05/30 01:49:35;0.00;0.00;0.62;0.00;0.00;0.62;2.07;1.33;;;27.50;26.30;;;;;;2264606;61;20442;-62
2022/05/30 01:52:19;0.00;0.00;0.62;0.00;0.00;0.62;2.20;1.40;;;27.50;26.30;;;;;;2262490;61;20360;-62
2022/05/30 01:55:05;0.00;0.00;0.62;0.00;0.00;0.62;2.53;1.07;;;27.50;26.30;;;;;;2265515;61;20922;-61
2022/05/30 01:58:07;0.00;0.00;0.62;0.00;0.00;0.62;1.93;1.10;;;27.50;26.20;;;;;;2265755;61;20411;-62
2022/05/30 02:00:52;0.00;0.00;0.62;0.00;0.00;0.62;1.70;1.07;;;27.50;26.10;;;;;;2269178;61;20387;-62
2022/05/30 02:03:38;0.00;0.00;0.62;0.00;0.00;0.62;2.60;1.10;;;27.50;26.10;;;;;;2265813;61;20380;-62
2022/05/30 02:06:26;0.00;0.00;0.62;0.00;0.00;0.62;2.53;1.00;;;27.40;26.00;;;;;;2266059;61;20388;-61
2022/05/30 02:09:11;0.00;0.00;0.62;0.00;0.00;0.62;2.80;1.03;;;27.40;26.00;;;;;;2266642;61;20477;-61
2022/05/30 02:11:56;0.00;0.00;0.62;0.00;0.00;0.62;2.13;1.20;;;27.40;25.90;;;;;;2265733;61;20371;-62
2022/05/30 02:14:53;0.00;0.00;0.62;0.00;0.00;0.62;2.80;0.93;;;27.40;25.90;;;;;;2266721;61;20915;-61
2022/05/30 02:17:38;0.00;0.00;0.62;0.00;0.00;0.62;2.40;1.10;;;27.40;26.40;;;;;;2265852;61;20423;-61
2022/05/30 02:20:24;0.00;0.00;0.62;0.00;0.00;0.62;2.10;0.93;;;27.30;25.80;;;;;;2263290;61;20414;-61
2022/05/30 02:23:09;0.00;0.00;0.62;0.00;0.00;0.62;3.30;1.63;;;27.30;25.80;;;;;;2269606;61;20575;-61
2022/05/30 02:25:54;0.00;0.00;0.62;0.00;0.00;0.62;2.63;1.37;;;27.30;25.80;;;;;;2265692;61;20375;-61
2022/05/30 02:28:39;0.00;0.00;0.62;0.00;0.00;0.62;1.73;1.00;;;27.30;25.80;;;;;;2266314;61;20356;-62
2022/05/30 02:31:24;0.00;0.00;0.62;0.00;0.00;0.62;2.03;1.30;;;27.30;25.80;;;;;;2265711;61;20394;-62
2022/05/30 02:37:14;0.00;0.00;0.62;0.00;0.00;0.62;2.10;1.13;;;27.20;25.70;;;;;;2265678;61;20437;-62
2022/05/30 02:40:01;0.00;0.00;0.62;0.00;0.00;0.62;2.07;1.23;;;27.20;25.70;;;;;;2266176;61;20372;-61
2022/05/30 02:43:05;0.00;0.00;0.62;0.00;0.00;0.62;2.10;1.10;;;27.20;25.70;;;;;;2269022;61;20363;-62
2022/05/30 02:45:55;0.00;0.00;0.62;0.00;0.00;0.62;3.20;1.03;;;27.20;25.70;;;;;;2265738;61;20372;-62
2022/05/30 02:48:40;0.00;0.00;0.62;0.00;0.00;0.62;2.00;1.00;;;27.10;25.70;;;;;;2265586;61;20360;-61
2022/05/30 02:51:25;0.00;0.00;0.62;0.00;0.00;0.62;2.07;1.20;;;27.10;25.70;;;;;;2269503;61;20924;-62
2022/05/30 02:54:11;0.00;0.00;0.62;0.00;0.00;0.62;1.77;1.03;;;27.10;25.70;;;;;;2266077;61;20430;-61
2022/05/30 02:57:15;0.00;0.00;0.62;0.00;0.00;0.62;2.30;1.30;;;27.10;25.70;;;;;;2269457;61;20384;-62
2022/05/30 03:00:01;0.00;0.00;0.62;0.00;0.00;0.62;3.53;1.17;;;27.00;25.60;;;;;;2269566;61;20363;-62
2022/05/30 03:02:48;0.00;0.00;0.62;0.00;0.00;0.62;3.50;1.40;;;27.00;25.60;;;;;;2265673;61;20364;-62
2022/05/30 03:05:33;0.00;0.00;0.62;0.00;0.00;0.62;2.70;1.40;;;27.00;25.60;;;;;;2265987;61;20384;-62
2022/05/30 03:08:20;0.00;0.00;0.62;0.00;0.00;0.62;2.10;1.20;;;27.00;25.70;;;;;;2265840;61;20403;-62
2022/05/30 03:11:41;0.00;0.00;0.62;0.00;0.00;0.62;2.83;1.50;;;27.00;25.70;;;;;;2264639;61;20511;-62
2022/05/30 03:14:26;0.00;0.00;0.62;0.00;0.00;0.62;2.53;1.13;;;26.90;25.60;;;;;;2269390;61;20384;-62
2022/05/30 03:17:12;0.00;0.00;0.62;0.00;0.00;0.62;2.47;1.40;;;26.90;25.60;;;;;;2265761;61;20383;-62
2022/05/30 03:20:03;0.00;0.00;0.62;0.00;0.00;0.62;1.80;1.20;;;26.90;26.20;;;;;;2266214;61;20477;-61
2022/05/30 03:22:49;0.00;0.00;0.62;0.00;0.00;0.62;2.93;1.70;;;26.90;25.60;;;;;;2509740;45;20380;-62
2022/05/30 03:25:37;0.00;0.00;0.62;0.00;0.00;0.62;3.03;1.13;;;26.80;25.50;;;;;;2261759;61;20407;-61
2022/05/30 03:28:23;0.00;0.00;0.62;0.00;0.00;0.62;2.33;1.40;;;26.80;26.10;;;;;;2262501;61;20984;-61
2022/05/30 03:31:08;0.00;0.00;0.62;0.00;0.00;0.62;2.77;1.30;;;26.80;25.60;;;;;;2261313;61;20368;-62
2022/05/30 03:33:54;0.00;0.00;0.62;0.00;0.00;0.62;4.77;1.17;;;26.80;25.60;;;;;;2261295;61;20424;-62
2022/05/30 03:36:41;0.00;0.00;0.62;0.00;0.00;0.62;3.30;1.43;;;26.80;25.60;;;;;;2266237;61;20383;-63
2022/05/30 03:39:48;0.00;0.00;0.62;0.00;0.00;0.62;2.70;1.47;;;26.80;25.60;;;;;;2265932;61;20387;-60
2022/05/30 03:42:52;0.00;0.00;0.62;0.00;0.00;0.62;2.40;1.53;;;26.70;25.50;;;;;;2264180;61;20368;-59
2022/05/30 03:45:44;0.00;0.00;0.62;0.00;0.00;0.62;3.20;1.63;;;26.70;25.60;;;;;;2261303;61;20672;-62
2022/05/30 03:48:29;0.00;0.00;0.62;0.00;0.00;0.62;2.93;1.20;;;26.60;25.50;;;;;;2258060;61;20372;-58
2022/05/30 03:51:14;0.00;0.00;0.62;0.00;0.00;0.62;2.57;1.10;;;26.60;25.50;;;;;;2260477;61;20451;-53
2022/05/30 03:54:00;0.00;0.00;0.62;0.00;0.00;0.62;2.23;1.23;;;26.60;25.60;;;;;;2260642;61;20821;-60
2022/05/30 03:56:44;0.00;0.00;0.62;0.00;0.00;0.62;2.97;1.20;;;26.60;25.60;;;;;;2263906;61;20405;-63
2022/05/30 03:59:29;0.00;0.00;0.62;0.00;0.00;0.62;2.30;1.50;;;26.60;25.60;;;;;;2260997;61;20441;-59
2022/05/30 04:02:15;0.00;0.00;0.62;0.00;0.00;0.62;2.33;1.00;;;26.60;25.60;;;;;;2263644;61;20364;-59
2022/05/30 04:05:00;0.00;0.00;0.62;0.00;0.00;0.62;2.00;1.10;;;26.60;25.60;;;;;;2264076;61;20360;-59
2022/05/30 04:07:45;0.00;0.00;0.62;0.00;0.00;0.62;3.00;1.40;;;26.50;25.60;;;;;;2261229;61;20918;-59
2022/05/30 04:10:48;0.00;0.00;0.62;0.00;0.00;0.62;2.30;1.40;;;26.50;25.60;;;;;;2263736;61;20395;-60
2022/05/30 04:13:52;0.00;0.00;0.62;0.00;0.00;0.62;1.90;1.13;;;26.50;25.60;;;;;;2264219;61;20406;-57
2022/05/30 04:17:16;0.00;0.00;0.62;0.00;0.00;0.62;4.73;1.57;;;26.40;25.60;;;;;;2248925;61;20573;-62
2022/05/30 04:20:01;0.00;0.00;0.62;0.00;0.00;0.62;2.70;1.23;;;26.40;25.70;;;;;;2248620;61;20374;-59
2022/05/30 04:22:46;0.00;0.00;0.62;0.00;0.00;0.62;2.00;1.00;;;26.40;25.70;;;;;;2376146;53;20369;-60
2022/05/30 04:25:53;0.00;0.00;0.62;0.00;0.00;0.62;6.20;1.03;;;26.40;25.80;;;;;;2254756;61;20933;-61
2022/05/30 04:28:39;0.00;0.00;0.62;0.00;0.00;0.62;3.00;1.50;;;26.30;25.70;;;;;;2252234;61;20393;-63
2022/05/30 04:31:43;0.00;0.00;0.62;0.00;0.00;0.62;2.27;1.10;;;26.30;25.70;;;;;;2253980;61;20784;-60
2022/05/30 04:34:32;0.00;0.00;0.62;0.00;0.00;0.62;2.50;1.30;;;26.30;25.70;;;;;;2252192;61;20420;-59
2022/05/30 04:37:17;0.00;0.00;0.62;0.00;0.00;0.62;1.97;1.20;;;26.30;25.70;;;;;;2251889;61;20406;-59
2022/05/30 04:40:08;0.00;0.00;0.62;0.00;0.00;0.62;2.13;1.10;;;26.30;25.70;;;;;;2251820;61;20357;-59
2022/05/30 04:43:12;0.00;0.00;0.62;0.00;0.00;0.62;5.90;1.40;;;26.30;25.80;;;;;;2268297;61;20367;-58
2022/05/30 04:46:19;0.00;0.00;0.62;0.00;0.00;0.62;2.63;1.10;;;26.20;25.80;;;;;;2267395;61;20409;-58
2022/05/30 04:49:08;0.00;0.00;0.62;0.00;0.00;0.62;4.83;1.10;;;26.20;25.70;;;;;;2264944;61;20757;-60
2022/05/30 04:51:55;0.00;0.00;0.62;0.00;0.00;0.62;3.87;1.40;;;26.20;25.80;;;;;;2264406;61;20374;-60
2022/05/30 04:54:39;0.00;0.00;0.62;0.00;0.00;0.62;2.37;1.10;;;26.20;25.80;;;;;;2263965;61;20942;-55
2022/05/30 04:57:42;0.00;0.00;0.62;0.00;0.00;0.62;3.90;1.50;;;26.20;25.80;;;;;;2262391;61;20417;-58
2022/05/30 05:00:41;0.00;0.00;0.62;0.00;0.00;0.62;2.63;1.23;;;26.20;26.30;;;;;;2264079;61;20370;-58
2022/05/30 05:03:33;0.00;0.00;0.62;0.00;0.00;0.62;1.93;0.93;;;26.20;25.80;;;;;;2265019;61;20363;-58
2022/05/30 05:06:20;0.00;0.00;0.62;0.00;0.00;0.62;2.80;1.00;;;26.20;25.80;;;;;;2264763;61;20379;-60
2022/05/30 05:09:29;0.00;0.00;0.62;0.00;0.00;0.62;2.73;1.23;;;26.10;25.70;;;;;;2264281;61;20362;-58
2022/05/30 05:12:33;0.00;0.00;0.62;0.00;0.00;0.62;2.33;1.30;;;26.10;25.80;;;;;;2267359;61;20362;-60
2022/05/30 05:15:56;0.00;0.00;0.62;0.00;0.00;0.62;2.30;1.10;;;26.10;25.80;;;;;;2263767;61;20496;-60
2022/05/30 05:18:46;0.00;0.00;0.62;0.00;0.00;0.62;2.37;1.10;;;26.10;25.80;;;;;;2268060;61;20371;-60
2022/05/30 05:21:33;0.00;0.00;0.62;0.00;0.00;0.62;3.60;1.40;;;26.10;25.80;;;;;;2264158;61;20370;-60
2022/05/30 05:24:20;0.00;0.00;0.62;0.00;0.00;0.62;5.67;1.40;;;26.10;25.80;;;;;;2500681;53;20398;-58
2022/05/30 05:27:23;0.00;0.00;0.62;0.00;0.00;0.62;3.00;1.30;;;26.00;25.70;;;;;;2261186;61;20388;-59
2022/05/30 05:30:10;0.00;0.00;0.62;0.00;0.00;0.62;3.80;1.83;;;26.10;25.80;;;;;;2260340;61;20438;-60
2022/05/30 05:32:55;0.00;0.00;0.62;0.00;0.00;0.62;3.17;1.30;;;26.00;25.70;;;;;;2260642;61;20364;-60
2022/05/30 05:35:41;0.00;0.00;0.62;0.00;0.00;0.62;2.00;0.83;;;26.00;25.70;;;;;;2261059;61;20916;-60
2022/05/30 05:38:26;0.00;0.00;0.62;0.00;0.00;0.62;2.17;1.40;;;26.00;25.70;;;;;;2264167;61;20359;-57
2022/05/30 05:41:36;0.00;0.00;0.62;0.00;0.00;0.62;3.60;1.60;;;26.00;25.70;;;;;;2264472;61;20456;-60
2022/05/30 05:44:27;0.00;0.00;0.62;0.00;0.00;0.62;2.53;1.30;;;26.00;25.70;;;;;;2265143;61;20444;-60
2022/05/30 05:47:13;0.00;0.00;0.62;0.00;0.00;0.62;2.37;1.23;;;25.90;25.70;;;;;;2262749;61;20961;-62
2022/05/30 05:49:58;0.00;0.00;0.62;0.00;0.00;0.62;4.80;1.30;;;25.90;25.70;;;;;;2268658;61;20390;-58
2022/05/30 05:52:44;0.00;0.00;0.62;0.00;0.00;0.62;2.60;1.30;;;25.90;25.70;;;;;;2265189;61;20355;-59
2022/05/30 05:55:35;0.00;0.00;0.62;0.00;0.00;0.62;3.53;1.50;;;26.00;25.80;;;;;;2265163;61;20394;-58
2022/05/30 05:58:21;0.00;0.00;0.62;0.00;0.00;0.62;2.70;1.20;;;25.90;25.70;;;;;;2265336;61;20386;-58
2022/05/30 06:01:07;0.00;0.00;0.62;0.00;0.00;0.62;2.70;1.37;;;25.90;25.70;;;;;;2267856;61;20363;-59
2022/05/30 06:03:54;0.00;0.00;0.62;0.00;0.00;0.62;2.47;1.30;;;25.90;25.70;;;;;;2268952;61;20363;-61
2022/05/30 06:07:00;0.00;0.00;0.62;0.00;0.00;0.62;4.43;1.77;;;25.90;25.80;;;;;;2268017;61;20889;-59
2022/05/30 06:09:49;0.00;0.00;0.62;0.00;0.00;0.62;3.37;1.20;;;25.90;25.80;;;;;;2265229;61;20354;-64
2022/05/30 06:12:56;0.00;0.00;0.62;0.00;0.00;0.62;2.77;1.23;;;25.90;25.80;;;;;;2265077;61;20403;-59
2022/05/30 06:15:45;0.00;0.00;0.62;0.00;0.00;0.62;2.57;1.43;;;25.90;25.80;;;;;;2268199;61;20409;-59
2022/05/30 06:18:33;0.00;0.00;0.62;0.00;0.00;0.62;2.73;1.30;;;25.80;25.70;;;;;;2265189;61;20407;-57
2022/05/30 06:21:19;0.00;0.00;0.62;0.00;0.00;0.62;5.37;1.63;;;25.80;25.70;;;;;;2267890;61;20454;-60
2022/05/30 06:24:09;0.00;0.00;0.62;0.00;0.00;0.62;2.10;1.27;;;25.90;25.70;;;;;;2497521;53;20405;-59
2022/05/30 06:27:17;0.00;0.00;0.62;0.00;0.00;0.62;2.57;1.50;;;25.80;25.70;;;;;;2264494;61;20392;-58
2022/05/30 06:30:23;0.00;0.00;0.62;0.00;0.00;0.62;3.20;1.20;;;25.80;25.70;;;;;;2260243;61;20364;-57
2022/05/30 06:33:10;0.00;0.00;0.62;0.00;0.00;0.62;2.63;1.37;;;25.80;25.70;;;;;;2261577;61;20774;-61
2022/05/30 06:36:08;0.00;0.00;0.62;0.00;0.00;0.62;3.57;1.80;;;25.80;25.70;;;;;;2260848;61;20376;-58
2022/05/30 06:38:55;0.00;0.00;0.62;0.00;0.00;0.62;5.80;1.40;;;25.80;25.70;;;;;;2260839;61;20356;-60
2022/05/30 06:41:48;0.00;0.00;0.62;0.00;0.00;0.62;3.00;1.77;;;25.80;25.70;;;;;;2264348;61;20367;-55
2022/05/30 06:44:35;0.00;0.00;0.62;0.00;0.00;0.62;5.73;2.13;;;25.80;25.60;;;;;;2264665;61;20789;-54
2022/05/30 06:47:49;0.00;0.00;0.62;0.00;0.00;0.62;3.40;1.87;;;25.80;25.60;;;;;;2255683;61;20452;-59
2022/05/30 06:51:18;0.00;0.00;0.62;0.00;0.00;0.62;2.90;1.30;;;25.70;25.60;;;;;;2250538;61;20414;-57
2022/05/30 06:54:06;0.00;0.00;0.62;0.00;0.00;0.62;2.53;1.47;;;25.70;25.70;;;;;;2248452;61;20367;-54
2022/05/30 06:59:54;0.00;0.00;0.62;0.00;0.00;0.62;3.90;1.40;;;25.70;25.80;;;;;;2264788;61;20366;-61
2022/05/30 07:02:39;0.00;0.00;0.62;0.00;0.00;0.62;2.60;1.30;;;25.80;25.80;;;;;;2265307;61;20454;-58
2022/05/30 07:05:45;0.00;0.00;0.62;0.00;0.00;0.62;2.87;1.50;;;25.80;26.40;;;;;;2268069;61;20354;-58
2022/05/30 07:08:50;0.00;0.00;0.62;0.00;0.00;0.62;3.80;1.90;;;25.70;25.80;;;;;;2268321;61;20409;-59
2022/05/30 07:11:57;0.00;0.00;0.62;0.00;0.00;0.62;2.57;1.80;;;25.80;25.90;;;;;;2264946;61;20463;-54
2022/05/30 07:14:43;0.00;0.00;0.62;0.00;0.00;0.62;4.10;1.63;;;25.80;25.90;;;;;;2264662;61;20787;-60
2022/05/30 07:17:28;0.00;0.00;0.62;0.00;0.00;0.62;2.80;1.50;;;25.80;25.90;;;;;;2265283;61;20391;-59
2022/05/30 07:20:13;0.00;0.00;0.62;0.00;0.00;0.62;2.50;1.70;;;25.80;25.90;;;;;;2268328;61;21047;-66
2022/05/30 07:23:19;0.00;0.00;0.62;0.00;0.00;0.62;2.40;1.40;;;25.80;25.90;;;;;;2260639;61;20387;-55
2022/05/30 07:26:24;0.00;0.00;0.62;0.00;0.00;0.62;2.23;1.30;;;25.80;25.90;;;;;;2264189;61;20403;-53
2022/05/30 07:29:44;0.00;0.00;0.62;0.00;0.00;0.62;3.97;1.63;;;25.80;25.90;;;;;;2247017;61;20837;-63
2022/05/30 07:32:47;0.00;0.00;0.62;0.00;0.00;0.62;3.83;1.47;;;25.80;25.90;;;;;;2264257;61;20359;-61
2022/05/30 07:35:51;0.00;0.00;0.62;0.00;0.00;0.62;2.33;1.00;;;25.80;25.90;;;;;;2261176;61;20928;-53
2022/05/30 07:38:57;0.00;0.00;0.62;0.00;0.00;0.62;2.60;1.50;;;25.80;25.80;;;;;;2261570;61;20364;-61
2022/05/30 07:42:02;0.00;0.00;0.62;0.00;0.00;0.62;2.47;1.40;;;25.90;25.90;;;;;;2267310;61;20383;-61
2022/05/30 07:44:56;0.00;0.00;0.62;0.00;0.00;0.62;1.90;1.33;;;25.90;25.90;;;;;;2264539;61;20375;-60
2022/05/30 07:48:14;0.00;0.00;0.62;0.00;0.00;0.62;1.73;1.10;;;25.90;25.90;;;;;;2264686;61;20375;-57
2022/05/30 07:51:14;0.00;0.00;0.62;0.00;0.00;0.62;1.53;1.00;;;25.90;25.90;;;;;;2264394;61;20817;-64
2022/05/30 07:54:06;0.00;0.00;0.62;0.00;0.00;0.62;2.70;1.50;;;25.90;25.90;;;;;;2265103;61;20413;-56
2022/05/30 07:56:55;0.00;0.00;0.62;0.00;0.00;0.62;2.23;1.53;;;25.90;25.80;;;;;;2264014;61;20387;-57
2022/05/30 07:59:41;0.00;0.00;0.62;0.00;0.00;0.62;1.70;0.83;;;25.90;25.90;;;;;;2264625;61;20915;-54
2022/05/30 08:02:26;0.00;0.00;0.62;0.00;0.00;0.62;1.83;1.17;;;25.90;25.80;;;;;;2264672;61;20415;-53
2022/05/30 08:05:13;0.00;0.00;0.62;0.00;0.00;0.62;3.13;1.30;;;25.90;25.80;;;;;;2264667;61;20401;-53
2022/05/30 08:08:18;0.00;0.00;0.62;0.00;0.00;0.62;3.30;1.40;;;25.90;25.80;;;;;;2268112;61;20830;-55
2022/05/30 08:11:08;0.00;0.00;0.62;0.00;0.00;0.62;2.30;1.13;;;26.00;25.80;;;;;;2264320;61;20355;-58
2022/05/30 08:14:00;0.00;0.00;0.62;0.00;0.00;0.62;2.43;1.60;;;26.00;25.80;;;;;;2264647;61;20379;-56
2022/05/30 08:16:46;0.00;0.00;0.62;0.00;0.00;0.62;2.57;1.13;;;26.00;25.70;;;;;;2264952;61;20402;-57
2022/05/30 08:19:31;0.00;0.00;0.62;0.00;0.00;0.62;2.60;1.33;;;26.00;25.60;;;;;;2265303;61;20406;-60
2022/05/30 08:22:16;0.00;0.00;0.62;0.00;0.00;0.62;2.37;1.10;;;26.00;25.60;;;;;;2264208;61;20907;-54
2022/05/30 08:25:04;0.00;0.00;0.62;0.00;0.00;0.62;3.00;1.10;;;26.00;25.60;;;;;;2265219;61;20359;-57
2022/05/30 08:27:49;0.00;0.00;0.62;0.00;0.00;0.62;1.83;1.17;;;26.00;25.60;;;;;;2264731;61;20426;-60
2022/05/30 08:30:33;0.00;0.00;0.62;0.00;0.00;0.62;2.13;1.17;;;26.00;25.60;;;;;;2263915;61;20778;-56
2022/05/30 08:33:42;0.00;0.00;0.62;0.00;0.00;0.62;2.30;1.20;;;26.00;25.60;;;;;;2268146;61;20356;-57
2022/05/30 08:36:54;0.00;0.00;0.62;0.00;0.00;0.62;1.70;0.93;;;26.00;25.60;;;;;;2267870;61;20443;-61
2022/05/30 08:42:43;0.00;0.00;0.62;0.00;0.00;0.62;3.70;1.20;;;26.10;25.70;;;;;;2260440;61;20659;-57
2022/05/30 08:45:42;0.00;0.00;0.62;0.00;0.00;0.62;2.40;1.20;;;26.10;25.70;;;;;;2260809;61;20627;-52
2022/05/30 08:48:41;0.00;0.00;0.62;0.00;0.00;0.62;1.90;1.00;;;26.10;25.60;;;;;;2260936;61;20396;-51
2022/05/30 08:52:00;0.00;0.00;0.62;0.00;0.00;0.62;3.00;1.37;;;26.10;25.60;;;;;;2259417;61;20364;-59
2022/05/30 08:55:04;0.00;0.00;0.62;0.00;0.00;0.62;2.60;1.30;;;26.10;25.60;;;;;;2261171;61;20835;-59
2022/05/30 08:58:02;0.00;0.00;0.62;0.00;0.00;0.62;2.67;1.00;;;26.10;25.60;;;;;;2259839;61;20376;-61
2022/05/30 09:00:51;0.00;0.00;0.62;0.00;0.00;0.62;1.67;0.90;;;26.10;25.60;;;;;;2260263;61;20352;-56
2022/05/30 09:04:09;0.00;0.00;0.62;0.00;0.00;0.62;2.93;1.47;;;26.10;25.50;;;;;;2263859;61;20351;-51
2022/05/30 09:07:02;0.00;0.00;0.62;0.00;0.00;0.62;2.43;1.40;;;26.10;25.30;;;;;;2260648;61;20379;-51
2022/05/30 09:09:55;0.00;0.00;0.62;0.00;0.00;0.62;3.60;1.13;;;26.10;25.30;;;;;;2260765;61;20579;-51
2022/05/30 09:12:56;0.00;0.00;0.62;0.00;0.00;0.62;2.27;1.10;;;26.10;25.40;;;;;;2260183;61;20383;-48
2022/05/30 09:16:02;0.00;0.00;0.62;0.00;0.00;0.62;2.57;1.20;;;26.10;25.40;;;;;;2258472;61;20410;-55
2022/05/30 09:18:51;0.00;0.00;0.62;0.00;0.00;0.62;2.20;1.10;;;26.10;25.40;;;;;;2263769;61;20352;-56
2022/05/30 09:21:36;0.00;0.00;0.62;0.00;0.00;0.62;1.90;1.03;;;26.10;25.40;;;;;;2263062;61;20381;-52
2022/05/30 09:24:22;0.00;0.00;0.62;0.00;0.00;0.62;1.90;1.00;;;26.10;25.50;;;;;;2264126;61;20889;-54
2022/05/30 09:27:07;0.00;0.00;0.62;0.00;0.00;0.62;2.80;1.30;;;26.20;25.50;;;;;;2260366;61;20388;-51
2022/05/30 09:30:00;0.00;0.00;0.62;0.00;0.00;0.62;1.90;1.00;;;26.10;25.50;;;;;;2260779;61;20418;-52
2022/05/30 09:33:15;0.00;0.00;0.62;0.00;0.00;0.62;1.50;0.90;;;26.20;25.50;;;;;;2263657;61;20372;-51
2022/05/30 09:36:22;0.00;0.00;0.62;0.00;0.00;0.62;1.80;1.00;;;26.20;25.50;;;;;;2263729;61;21046;-52
2022/05/30 09:39:47;0.00;0.00;0.62;0.00;0.00;0.62;1.57;1.10;;;26.20;25.50;;;;;;2257029;61;20379;-49
2022/05/30 09:42:35;0.00;0.00;0.62;0.00;0.00;0.62;2.27;1.00;;;26.20;25.50;;;;;;2638503;45;20832;-48
2022/05/30 09:45:29;0.00;0.00;0.62;0.00;0.00;0.62;2.27;1.20;;;26.20;25.50;;;;;;2260665;61;20953;-51
2022/05/30 09:48:24;0.00;0.00;0.62;0.00;0.00;0.62;1.50;0.77;;;26.20;25.50;;;;;;2263577;61;20790;-48
2022/05/30 09:51:30;0.00;0.00;0.62;0.00;0.00;0.62;2.33;1.00;;;26.20;25.50;;;;;;2260115;61;20603;-51
2022/05/30 09:54:33;0.00;0.00;0.62;0.00;0.00;0.62;2.20;1.03;;;26.20;25.50;;;;;;2260453;61;20999;-51
2022/05/30 09:57:23;0.00;0.00;0.62;0.00;0.00;0.62;1.90;0.87;;;26.20;25.50;;;;;;2260207;61;20379;-52
2022/05/30 10:00:41;0.00;0.00;0.62;0.00;0.00;0.62;3.00;1.27;;;26.20;25.50;;;;;;2260674;61;20499;-52
2022/05/30 10:03:31;0.00;0.00;0.62;0.00;0.00;0.62;1.60;0.80;;;26.30;25.60;;;;;;2260267;61;20376;-50
2022/05/30 10:06:34;0.00;0.00;0.62;0.00;0.00;0.62;1.70;0.80;;;26.30;25.60;;;;;;2263656;61;20425;-53
2022/05/30 10:09:51;0.00;0.00;0.62;0.00;0.00;0.62;2.00;0.90;;;26.30;25.60;;;;;;2263809;61;20978;-49
2022/05/30 10:12:41;0.00;0.00;0.62;0.00;0.00;0.62;2.63;1.10;;;26.30;25.60;;;;;;2260021;61;20484;-56
2022/05/30 10:15:30;0.00;0.00;0.62;0.00;0.00;0.62;2.47;0.80;;;26.30;25.60;;;;;;2260877;61;20392;-50
2022/05/30 10:18:27;0.00;0.00;0.62;0.00;0.00;0.62;1.87;0.87;;;26.30;25.60;;;;;;2260177;61;20901;-51
2022/05/30 10:21:32;0.00;0.00;0.62;0.00;0.00;0.62;1.60;0.90;;;26.30;25.60;;;;;;2261123;61;20360;-51
2022/05/30 10:28:20;0.00;0.00;0.62;0.00;0.00;0.62;1.80;0.80;;;26.40;25.60;;;;;;2261197;61;20431;-53
2022/05/30 10:31:40;0.00;0.00;0.62;0.00;0.00;0.62;1.60;0.80;;;26.40;25.60;;;;;;2263715;61;20441;-52
2022/05/30 10:34:51;0.00;0.00;0.62;0.00;0.00;0.62;1.43;0.80;;;26.40;26.20;;;;;;2260863;61;20368;-49
2022/05/30 10:38:20;0.00;0.00;0.62;0.00;0.00;0.62;2.20;1.00;;;26.40;25.60;;;;;;2261238;61;20383;-51
2022/05/30 10:41:11;0.00;0.00;0.62;0.00;0.00;0.62;1.70;0.73;;;26.40;25.60;;;;;;2241982;61;20375;-51
2022/05/30 10:44:06;0.00;0.00;0.62;0.00;0.00;0.62;3.20;0.70;;;26.40;25.60;;;;;;2244990;61;20371;-53
2022/05/30 10:47:00;0.00;0.00;0.62;0.00;0.00;0.62;1.60;0.80;;;26.40;25.60;;;;;;2265229;61;20406;-49
2022/05/30 10:49:57;0.00;0.00;0.62;0.00;0.00;0.62;1.63;0.93;;;26.40;25.60;;;;;;2264582;61;20459;-53
2022/05/30 10:52:49;0.00;0.00;0.62;0.00;0.00;0.62;1.20;0.60;;;26.50;25.60;;;;;;2264743;61;20502;-55
2022/05/30 10:55:39;0.00;0.00;0.62;0.00;0.00;0.62;2.13;0.80;;;26.50;25.60;;;;;;2264825;61;20379;-54
2022/05/30 10:58:30;0.00;0.00;0.62;0.00;0.00;0.62;1.47;0.90;;;26.50;25.60;;;;;;2264872;61;20382;-50
2022/05/30 11:01:40;0.00;0.00;0.62;0.00;0.00;0.62;1.40;0.80;;;26.50;25.60;;;;;;2268215;61;20351;-50
2022/05/30 11:04:39;0.00;0.00;0.62;0.00;0.00;0.62;2.10;0.77;;;26.50;25.60;;;;;;2264696;61;20838;-48
2022/05/30 11:07:40;0.00;0.00;0.62;0.00;0.00;0.62;1.40;0.80;;;26.50;25.60;;;;;;2265289;61;20426;-52
2022/05/30 11:10:47;0.00;0.00;0.62;0.00;0.00;0.62;4.20;0.90;;;26.50;25.60;;;;;;2264076;61;20358;-53
2022/05/30 11:13:43;0.00;0.00;0.62;0.00;0.00;0.62;1.83;0.80;;;26.50;25.60;;;;;;2264955;61;20808;-53
2022/05/30 11:16:48;0.00;0.00;0.62;0.00;0.00;0.62;1.50;0.90;;;26.60;25.60;;;;;;2265042;61;20387;-53
2022/05/30 11:20:04;0.00;0.00;0.62;0.00;0.00;0.62;1.20;0.60;;;26.60;25.60;;;;;;2268067;61;20398;-54
2022/05/30 11:23:10;0.00;0.00;0.62;0.00;0.00;0.62;1.40;0.73;;;26.60;25.60;;;;;;2266973;61;20441;-50
2022/05/30 11:26:26;0.00;0.00;0.62;0.00;0.00;0.62;1.40;0.80;;;26.60;25.60;;;;;;2267881;61;20382;-53
2022/05/30 11:29:40;0.00;0.00;0.62;0.00;0.00;0.62;1.30;0.80;;;26.60;25.60;;;;;;2268778;61;20355;-56
2022/05/30 11:33:28;0.00;0.00;0.62;0.00;0.00;0.62;1.20;0.70;;;26.60;25.60;;;;;;2264195;61;20945;-53
2022/05/30 11:36:41;0.00;0.00;0.62;0.00;0.00;0.62;1.70;0.93;;;26.60;25.60;;;;;;2265385;61;20970;-49
2022/05/30 11:39:57;0.00;0.00;0.62;0.00;0.00;0.62;2.20;0.87;;;26.60;25.50;;;;;;2267739;61;20371;-54
2022/05/30 11:42:51;0.00;0.00;0.62;0.00;0.00;0.62;1.30;0.77;;;26.60;25.50;;;;;;2263864;61;20971;-50
2022/05/30 11:45:51;0.00;0.00;0.62;0.00;0.00;0.62;1.30;0.80;;;26.60;25.50;;;;;;2264131;61;20360;-53